sensor_id;sensor_type;location;lat;lon;timestamp;pressure;altitude;pressure_sealevel;temperature;humidity
13695;BME280;6919;52.344;14.518;2023-02-16T00:01:52;101481.03;;;3.17;100.00
13695;BME280;6919;52.344;14.518;2023-02-16T00:04:22;101476.75;;;3.14;100.00
13695;BME280;6919;52.344;14.518;2023-02-16T00:06:53;101482.56;;;3.21;100.00
13695;BME280;6919;52.344;14.518;2023-02-16T00:09:23;101476.06;;;3.10;100.00
13695;BME280;6919;52.344;14.518;2023-02-16T00:11:52;101473.78;;;3.04;100.00
13695;BME280;6919;52.344;14.518;2023-02-16T00:14:39;101477.25;;;3.05;100.00
13695;BME280;6919;52.344;14.518;2023-02-16T00:17:10;101486.66;;;3.10;100.00
13695;BME280;6919;52.344;14.518;2023-02-16T00:19:40;101476.66;;;3.00;100.00
13695;BME280;6919;52.344;14.518;2023-02-16T00:22:10;101477.16;;;3.06;100.00
13695;BME280;6919;52.344;14.518;2023-02-16T00:24:39;101470.66;;;2.96;100.00
13695;BME280;6919;52.344;14.518;2023-02-16T00:27:12;101477.63;;;2.99;100.00
13695;BME280;6919;52.344;14.518;2023-02-16T00:29:42;101468.56;;;3.03;100.00
13695;BME280;6919;52.344;14.518;2023-02-16T00:32:12;101471.22;;;3.03;100.00
13695;BME280;6919;52.344;14.518;2023-02-16T00:34:42;101479.00;;;3.06;100.00
13695;BME280;6919;52.344;14.518;2023-02-16T00:37:12;101478.44;;;3.15;100.00
13695;BME280;6919;52.344;14.518;2023-02-16T00:39:42;101487.16;;;2.86;100.00
13695;BME280;6919;52.344;14.518;2023-02-16T00:42:16;101489.38;;;2.93;100.00
13695;BME280;6919;52.344;14.518;2023-02-16T00:44:48;101478.53;;;2.98;100.00
13695;BME280;6919;52.344;14.518;2023-02-16T00:47:19;101480.44;;;3.12;100.00
13695;BME280;6919;52.344;14.518;2023-02-16T00:49:50;101480.16;;;3.00;100.00
13695;BME280;6919;52.344;14.518;2023-02-16T00:52:33;101475.53;;;2.88;100.00
13695;BME280;6919;52.344;14.518;2023-02-16T00:55:03;101472.03;;;2.88;100.00
13695;BME280;6919;52.344;14.518;2023-02-16T00:57:34;101476.03;;;2.95;100.00
13695;BME280;6919;52.344;14.518;2023-02-16T01:00:10;101478.69;;;2.95;100.00
13695;BME280;6919;52.344;14.518;2023-02-16T01:02:40;101470.56;;;2.82;100.00
13695;BME280;6919;52.344;14.518;2023-02-16T01:05:10;101471.94;;;2.89;100.00
13695;BME280;6919;52.344;14.518;2023-02-16T01:07:41;101477.25;;;2.89;100.00
13695;BME280;6919;52.344;14.518;2023-02-16T01:10:27;101471.94;;;2.74;100.00
13695;BME280;6919;52.344;14.518;2023-02-16T01:13:14;101475.19;;;2.79;100.00
13695;BME280;6919;52.344;14.518;2023-02-16T01:15:43;101478.34;;;2.85;100.00
13695;BME280;6919;52.344;14.518;2023-02-16T01:18:13;101472.31;;;2.83;100.00
13695;BME280;6919;52.344;14.518;2023-02-16T01:20:43;101472.88;;;2.73;100.00
13695;BME280;6919;52.344;14.518;2023-02-16T01:23:13;101473.56;;;2.61;100.00
13695;BME280;6919;52.344;14.518;2023-02-16T01:25:42;101466.03;;;2.69;100.00
13695;BME280;6919;52.344;14.518;2023-02-16T01:28:17;101465.63;;;2.61;100.00
13695;BME280;6919;52.344;14.518;2023-02-16T01:30:46;101466.44;;;2.61;100.00
13695;BME280;6919;52.344;14.518;2023-02-16T01:33:15;101472.34;;;2.51;100.00
13695;BME280;6919;52.344;14.518;2023-02-16T01:35:44;101471.25;;;2.38;100.00
13695;BME280;6919;52.344;14.518;2023-02-16T01:38:18;101468.38;;;2.42;100.00
13695;BME280;6919;52.344;14.518;2023-02-16T01:40:54;101474.69;;;2.40;100.00
13695;BME280;6919;52.344;14.518;2023-02-16T01:43:26;101464.78;;;2.43;100.00
13695;BME280;6919;52.344;14.518;2023-02-16T01:46:00;101469.25;;;2.43;100.00
13695;BME280;6919;52.344;14.518;2023-02-16T01:48:31;101472.25;;;2.52;100.00
13695;BME280;6919;52.344;14.518;2023-02-16T01:51:05;101468.00;;;2.50;100.00
13695;BME280;6919;52.344;14.518;2023-02-16T01:53:40;101466.44;;;2.46;100.00
13695;BME280;6919;52.344;14.518;2023-02-16T01:56:19;101458.66;;;2.43;100.00
13695;BME280;6919;52.344;14.518;2023-02-16T01:58:53;101449.63;;;2.47;100.00
13695;BME280;6919;52.344;14.518;2023-02-16T02:01:43;101468.91;;;2.49;100.00
13695;BME280;6919;52.344;14.518;2023-02-16T02:04:22;101468.31;;;2.44;100.00
13695;BME280;6919;52.344;14.518;2023-02-16T02:07:15;101466.59;;;2.43;100.00
13695;BME280;6919;52.344;14.518;2023-02-16T02:09:55;101460.09;;;2.33;100.00
13695;BME280;6919;52.344;14.518;2023-02-16T02:12:31;101465.16;;;2.20;100.00
13695;BME280;6919;52.344;14.518;2023-02-16T02:15:02;101467.22;;;2.31;100.00
13695;BME280;6919;52.344;14.518;2023-02-16T02:17:31;101457.75;;;2.27;100.00
13695;BME280;6919;52.344;14.518;2023-02-16T02:20:05;101459.97;;;2.19;100.00
13695;BME280;6919;52.344;14.518;2023-02-16T02:23:09;101453.84;;;2.34;100.00
13695;BME280;6919;52.344;14.518;2023-02-16T02:29:29;101444.69;;;2.24;100.00
13695;BME280;6919;52.344;14.518;2023-02-16T02:32:08;101435.78;;;2.09;100.00
13695;BME280;6919;52.344;14.518;2023-02-16T02:34:53;101439.47;;;2.22;100.00
13695;BME280;6919;52.344;14.518;2023-02-16T02:37:33;101439.22;;;2.27;100.00
13695;BME280;6919;52.344;14.518;2023-02-16T02:40:13;101448.34;;;2.21;100.00
13695;BME280;6919;52.344;14.518;2023-02-16T02:42:50;101448.44;;;2.20;100.00
13695;BME280;6919;52.344;14.518;2023-02-16T02:45:27;101438.78;;;2.19;100.00
13695;BME280;6919;52.344;14.518;2023-02-16T02:47:57;101435.34;;;2.17;100.00
13695;BME280;6919;52.344;14.518;2023-02-16T02:50:42;101439.09;;;2.13;100.00
13695;BME280;6919;52.344;14.518;2023-02-16T02:53:35;101442.59;;;2.30;100.00
13695;BME280;6919;52.344;14.518;2023-02-16T02:56:06;101439.16;;;2.28;100.00
13695;BME280;6919;52.344;14.518;2023-02-16T02:58:56;101436.78;;;2.07;100.00
13695;BME280;6919;52.344;14.518;2023-02-16T03:01:47;101441.78;;;1.96;100.00
13695;BME280;6919;52.344;14.518;2023-02-16T03:04:21;101431.81;;;2.01;100.00
13695;BME280;6919;52.344;14.518;2023-02-16T03:06:52;101435.00;;;2.07;100.00
13695;BME280;6919;52.344;14.518;2023-02-16T03:09:24;101437.13;;;2.01;100.00
13695;BME280;6919;52.344;14.518;2023-02-16T03:11:53;101441.06;;;2.09;100.00
13695;BME280;6919;52.344;14.518;2023-02-16T03:14:41;101438.97;;;1.99;100.00
13695;BME280;6919;52.344;14.518;2023-02-16T03:17:15;101433.00;;;1.95;100.00
13695;BME280;6919;52.344;14.518;2023-02-16T03:20:05;101434.13;;;2.07;100.00
13695;BME280;6919;52.344;14.518;2023-02-16T03:22:53;101430.50;;;1.92;100.00
13695;BME280;6919;52.344;14.518;2023-02-16T03:25:41;101437.41;;;1.95;100.00
13695;BME280;6919;52.344;14.518;2023-02-16T03:28:28;101433.00;;;1.95;100.00
13695;BME280;6919;52.344;14.518;2023-02-16T03:31:19;101432.28;;;1.92;100.00
13695;BME280;6919;52.344;14.518;2023-02-16T03:33:51;101424.34;;;1.92;100.00
13695;BME280;6919;52.344;14.518;2023-02-16T03:36:21;101426.97;;;2.09;100.00
13695;BME280;6919;52.344;14.518;2023-02-16T03:38:51;101432.13;;;2.12;100.00
13695;BME280;6919;52.344;14.518;2023-02-16T03:41:20;101429.47;;;2.12;100.00
13695;BME280;6919;52.344;14.518;2023-02-16T03:43:51;101423.91;;;2.01;100.00
13695;BME280;6919;52.344;14.518;2023-02-16T03:46:19;101429.13;;;1.85;100.00
13695;BME280;6919;52.344;14.518;2023-02-16T03:48:50;101416.84;;;1.84;100.00
13695;BME280;6919;52.344;14.518;2023-02-16T03:51:18;101423.06;;;1.66;100.00
13695;BME280;6919;52.344;14.518;2023-02-16T03:53:47;101426.84;;;1.61;100.00
13695;BME280;6919;52.344;14.518;2023-02-16T03:56:16;101428.66;;;1.60;100.00
13695;BME280;6919;52.344;14.518;2023-02-16T03:58:44;101429.19;;;1.50;100.00
13695;BME280;6919;52.344;14.518;2023-02-16T04:01:13;101431.00;;;1.49;100.00
13695;BME280;6919;52.344;14.518;2023-02-16T04:03:42;101427.63;;;1.46;100.00
13695;BME280;6919;52.344;14.518;2023-02-16T04:06:12;101423.91;;;1.50;100.00
13695;BME280;6919;52.344;14.518;2023-02-16T04:08:41;101430.84;;;1.52;100.00
13695;BME280;6919;52.344;14.518;2023-02-16T04:11:09;101429.69;;;1.58;100.00
13695;BME280;6919;52.344;14.518;2023-02-16T04:13:51;101426.09;;;1.59;100.00
13695;BME280;6919;52.344;14.518;2023-02-16T04:16:20;101426.41;;;1.53;100.00
13695;BME280;6919;52.344;14.518;2023-02-16T04:18:49;101431.53;;;1.56;100.00
13695;BME280;6919;52.344;14.518;2023-02-16T04:21:19;101425.78;;;1.48;100.00
13695;BME280;6919;52.344;14.518;2023-02-16T04:23:47;101423.75;;;1.53;100.00
13695;BME280;6919;52.344;14.518;2023-02-16T04:26:16;101429.59;;;1.59;100.00
13695;BME280;6919;52.344;14.518;2023-02-16T04:28:44;101419.94;;;1.58;100.00
13695;BME280;6919;52.344;14.518;2023-02-16T04:31:13;101424.69;;;1.69;100.00
13695;BME280;6919;52.344;14.518;2023-02-16T04:33:41;101412.25;;;1.71;100.00
13695;BME280;6919;52.344;14.518;2023-02-16T04:36:10;101416.91;;;1.66;100.00
13695;BME280;6919;52.344;14.518;2023-02-16T04:38:40;101417.06;;;1.63;100.00
13695;BME280;6919;52.344;14.518;2023-02-16T04:41:08;101413.41;;;1.65;100.00
13695;BME280;6919;52.344;14.518;2023-02-16T04:43:37;101415.53;;;1.59;100.00
13695;BME280;6919;52.344;14.518;2023-02-16T04:46:06;101414.44;;;1.63;100.00
13695;BME280;6919;52.344;14.518;2023-02-16T04:48:34;101418.47;;;1.70;100.00
13695;BME280;6919;52.344;14.518;2023-02-16T04:51:03;101421.28;;;1.67;100.00
13695;BME280;6919;52.344;14.518;2023-02-16T04:53:32;101412.41;;;1.68;100.00
13695;BME280;6919;52.344;14.518;2023-02-16T04:56:02;101401.97;;;1.82;100.00
13695;BME280;6919;52.344;14.518;2023-02-16T04:58:31;101403.63;;;1.84;100.00
13695;BME280;6919;52.344;14.518;2023-02-16T05:01:00;101401.38;;;1.77;100.00
13695;BME280;6919;52.344;14.518;2023-02-16T05:03:29;101404.22;;;1.72;100.00
13695;BME280;6919;52.344;14.518;2023-02-16T05:05:57;101401.66;;;1.71;100.00
13695;BME280;6919;52.344;14.518;2023-02-16T05:08:26;101411.47;;;1.52;100.00
13695;BME280;6919;52.344;14.518;2023-02-16T05:10:54;101410.53;;;1.53;100.00
13695;BME280;6919;52.344;14.518;2023-02-16T05:13:42;101412.31;;;1.69;100.00
13695;BME280;6919;52.344;14.518;2023-02-16T05:16:27;101412.88;;;1.59;100.00
13695;BME280;6919;52.344;14.518;2023-02-16T05:18:56;101415.38;;;1.62;100.00
13695;BME280;6919;52.344;14.518;2023-02-16T05:21:25;101409.06;;;1.64;100.00
13695;BME280;6919;52.344;14.518;2023-02-16T05:24:04;101400.75;;;1.72;100.00
13695;BME280;6919;52.344;14.518;2023-02-16T05:26:33;101397.31;;;1.70;100.00
13695;BME280;6919;52.344;14.518;2023-02-16T05:29:04;101402.09;;;1.63;100.00
13695;BME280;6919;52.344;14.518;2023-02-16T05:31:33;101400.28;;;1.64;100.00
13695;BME280;6919;52.344;14.518;2023-02-16T05:34:01;101388.44;;;1.88;100.00
13695;BME280;6919;52.344;14.518;2023-02-16T05:36:30;101393.81;;;1.69;100.00
13695;BME280;6919;52.344;14.518;2023-02-16T05:38:58;101391.50;;;1.63;100.00
13695;BME280;6919;52.344;14.518;2023-02-16T05:41:27;101386.91;;;1.67;100.00
13695;BME280;6919;52.344;14.518;2023-02-16T05:43:57;101391.09;;;1.71;100.00
13695;BME280;6919;52.344;14.518;2023-02-16T05:46:29;101396.88;;;1.62;100.00
13695;BME280;6919;52.344;14.518;2023-02-16T05:48:59;101398.81;;;1.58;100.00
13695;BME280;6919;52.344;14.518;2023-02-16T05:51:28;101398.28;;;1.52;100.00
13695;BME280;6919;52.344;14.518;2023-02-16T05:53:57;101402.91;;;1.64;100.00
13695;BME280;6919;52.344;14.518;2023-02-16T05:56:25;101405.03;;;1.57;100.00
13695;BME280;6919;52.344;14.518;2023-02-16T05:58:54;101415.81;;;1.53;100.00
13695;BME280;6919;52.344;14.518;2023-02-16T06:01:23;101417.38;;;1.57;100.00
13695;BME280;6919;52.344;14.518;2023-02-16T06:03:53;101418.00;;;1.62;100.00
13695;BME280;6919;52.344;14.518;2023-02-16T06:06:21;101412.59;;;1.65;100.00
13695;BME280;6919;52.344;14.518;2023-02-16T06:08:50;101404.53;;;1.83;100.00
13695;BME280;6919;52.344;14.518;2023-02-16T06:11:19;101412.22;;;1.88;100.00
13695;BME280;6919;52.344;14.518;2023-02-16T06:14:07;101412.25;;;1.71;100.00
13695;BME280;6919;52.344;14.518;2023-02-16T06:16:37;101426.09;;;1.59;100.00
13695;BME280;6919;52.344;14.518;2023-02-16T06:19:08;101420.88;;;1.57;100.00
13695;BME280;6919;52.344;14.518;2023-02-16T06:21:38;101420.03;;;1.57;100.00
13695;BME280;6919;52.344;14.518;2023-02-16T06:24:08;101416.22;;;1.62;100.00
13695;BME280;6919;52.344;14.518;2023-02-16T06:26:37;101417.06;;;1.63;100.00
13695;BME280;6919;52.344;14.518;2023-02-16T06:29:06;101419.78;;;1.44;100.00
13695;BME280;6919;52.344;14.518;2023-02-16T06:31:34;101424.94;;;1.64;100.00
13695;BME280;6919;52.344;14.518;2023-02-16T06:34:04;101423.69;;;1.54;100.00
13695;BME280;6919;52.344;14.518;2023-02-16T06:36:34;101424.13;;;1.62;100.00
13695;BME280;6919;52.344;14.518;2023-02-16T06:39:03;101420.88;;;1.57;100.00
13695;BME280;6919;52.344;14.518;2023-02-16T06:41:31;101407.81;;;1.71;100.00
13695;BME280;6919;52.344;14.518;2023-02-16T06:44:06;101410.25;;;1.76;100.00
13695;BME280;6919;52.344;14.518;2023-02-16T06:46:35;101406.34;;;1.83;100.00
13695;BME280;6919;52.344;14.518;2023-02-16T06:49:04;101413.53;;;1.96;100.00
13695;BME280;6919;52.344;14.518;2023-02-16T06:51:34;101415.38;;;1.79;100.00
13695;BME280;6919;52.344;14.518;2023-02-16T06:54:02;101427.06;;;2.07;100.00
13695;BME280;6919;52.344;14.518;2023-02-16T06:56:31;101426.69;;;1.98;100.00
13695;BME280;6919;52.344;14.518;2023-02-16T06:59:02;101430.56;;;2.08;100.00
13695;BME280;6919;52.344;14.518;2023-02-16T07:01:31;101439.34;;;2.08;100.00
13695;BME280;6919;52.344;14.518;2023-02-16T07:04:00;101446.22;;;2.12;100.00
13695;BME280;6919;52.344;14.518;2023-02-16T07:06:28;101445.50;;;2.09;100.00
13695;BME280;6919;52.344;14.518;2023-02-16T07:08:58;101466.44;;;2.13;100.00
13695;BME280;6919;52.344;14.518;2023-02-16T07:11:27;101459.16;;;2.17;100.00
13695;BME280;6919;52.344;14.518;2023-02-16T07:13:57;101459.97;;;2.19;100.00
13695;BME280;6919;52.344;14.518;2023-02-16T07:16:26;101455.97;;;2.27;100.00
13695;BME280;6919;52.344;14.518;2023-02-16T07:18:54;101440.66;;;2.49;100.00
13695;BME280;6919;52.344;14.518;2023-02-16T07:21:23;101452.19;;;2.48;100.00
13695;BME280;6919;52.344;14.518;2023-02-16T07:23:52;101458.50;;;2.46;100.00
13695;BME280;6919;52.344;14.518;2023-02-16T07:26:22;101458.59;;;2.44;100.00
13695;BME280;6919;52.344;14.518;2023-02-16T07:28:51;101462.41;;;2.39;100.00
13695;BME280;6919;52.344;14.518;2023-02-16T07:31:19;101453.81;;;2.51;100.00
13695;BME280;6919;52.344;14.518;2023-02-16T07:33:52;101441.94;;;2.58;100.00
13695;BME280;6919;52.344;14.518;2023-02-16T07:36:20;101450.81;;;2.41;100.00
13695;BME280;6919;52.344;14.518;2023-02-16T07:38:49;101450.84;;;2.57;100.00
13695;BME280;6919;52.344;14.518;2023-02-16T07:41:17;101464.97;;;2.56;100.00
13695;BME280;6919;52.344;14.518;2023-02-16T07:43:47;101459.69;;;2.56;100.00
13695;BME280;6919;52.344;14.518;2023-02-16T07:46:16;101449.22;;;2.70;100.00
13695;BME280;6919;52.344;14.518;2023-02-16T07:48:46;101444.78;;;2.70;100.00
13695;BME280;6919;52.344;14.518;2023-02-16T07:51:20;101440.78;;;2.79;100.00
13695;BME280;6919;52.344;14.518;2023-02-16T07:53:49;101439.66;;;2.83;100.00
13695;BME280;6919;52.344;14.518;2023-02-16T07:56:19;101443.06;;;3.00;100.00
13695;BME280;6919;52.344;14.518;2023-02-16T07:58:51;101437.69;;;3.02;100.00
13695;BME280;6919;52.344;14.518;2023-02-16T08:01:20;101446.91;;;3.10;100.00
13695;BME280;6919;52.344;14.518;2023-02-16T08:03:49;101450.91;;;3.33;100.00
13695;BME280;6919;52.344;14.518;2023-02-16T08:06:18;101446.97;;;3.25;100.00
13695;BME280;6919;52.344;14.518;2023-02-16T08:08:47;101449.81;;;3.22;100.00
13695;BME280;6919;52.344;14.518;2023-02-16T08:11:17;101448.09;;;3.36;100.00
13695;BME280;6919;52.344;14.518;2023-02-16T08:13:46;101441.31;;;3.46;100.00
13695;BME280;6919;52.344;14.518;2023-02-16T08:16:18;101430.22;;;3.40;100.00
13695;BME280;6919;52.344;14.518;2023-02-16T08:18:47;101430.63;;;3.48;100.00
13695;BME280;6919;52.344;14.518;2023-02-16T08:21:18;101434.59;;;3.70;100.00
13695;BME280;6919;52.344;14.518;2023-02-16T08:23:52;101422.97;;;3.87;100.00
13695;BME280;6919;52.344;14.518;2023-02-16T08:26:23;101422.50;;;3.94;100.00
13695;BME280;6919;52.344;14.518;2023-02-16T08:28:52;101424.94;;;3.83;100.00
13695;BME280;6919;52.344;14.518;2023-02-16T08:31:25;101435.53;;;3.83;100.00
13695;BME280;6919;52.344;14.518;2023-02-16T08:34:02;101435.94;;;3.77;100.00
13695;BME280;6919;52.344;14.518;2023-02-16T08:36:33;101437.59;;;3.64;100.00
13695;BME280;6919;52.344;14.518;2023-02-16T08:39:04;101429.59;;;3.80;100.00
13695;BME280;6919;52.344;14.518;2023-02-16T08:41:34;101432.75;;;3.71;100.00
13695;BME280;6919;52.344;14.518;2023-02-16T08:44:03;101428.41;;;3.70;100.00
13695;BME280;6919;52.344;14.518;2023-02-16T08:46:35;101425.88;;;3.82;100.00
13695;BME280;6919;52.344;14.518;2023-02-16T08:49:06;101419.97;;;3.93;100.00
13695;BME280;6919;52.344;14.518;2023-02-16T08:51:36;101421.00;;;4.04;100.00
13695;BME280;6919;52.344;14.518;2023-02-16T08:54:08;101422.59;;;4.07;100.00
13695;BME280;6919;52.344;14.518;2023-02-16T08:56:38;101425.25;;;4.07;100.00
13695;BME280;6919;52.344;14.518;2023-02-16T08:59:07;101422.91;;;4.16;100.00
13695;BME280;6919;52.344;14.518;2023-02-16T09:01:37;101431.16;;;4.40;100.00
13695;BME280;6919;52.344;14.518;2023-02-16T09:04:06;101424.63;;;4.31;100.00
13695;BME280;6919;52.344;14.518;2023-02-16T09:06:37;101424.63;;;4.59;100.00
13695;BME280;6919;52.344;14.518;2023-02-16T09:09:06;101418.50;;;4.71;100.00
13695;BME280;6919;52.344;14.518;2023-02-16T09:11:36;101422.78;;;4.74;100.00
13695;BME280;6919;52.344;14.518;2023-02-16T09:14:04;101418.56;;;4.98;100.00
13695;BME280;6919;52.344;14.518;2023-02-16T09:16:37;101408.31;;;5.06;100.00
13695;BME280;6919;52.344;14.518;2023-02-16T09:19:12;101410.88;;;5.20;100.00
13695;BME280;6919;52.344;14.518;2023-02-16T09:21:43;101414.25;;;5.09;100.00
13695;BME280;6919;52.344;14.518;2023-02-16T09:24:13;101402.28;;;5.16;100.00
13695;BME280;6919;52.344;14.518;2023-02-16T09:26:42;101408.59;;;5.28;100.00
13695;BME280;6919;52.344;14.518;2023-02-16T09:29:12;101409.53;;;5.27;100.00
13695;BME280;6919;52.344;14.518;2023-02-16T09:31:42;101417.06;;;5.47;100.00
13695;BME280;6919;52.344;14.518;2023-02-16T09:34:17;101418.16;;;5.57;100.00
13695;BME280;6919;52.344;14.518;2023-02-16T09:36:46;101419.94;;;5.56;100.00
13695;BME280;6919;52.344;14.518;2023-02-16T09:39:16;101421.06;;;5.79;100.00
13695;BME280;6919;52.344;14.518;2023-02-16T09:41:59;101424.41;;;5.82;100.00
13695;BME280;6919;52.344;14.518;2023-02-16T09:44:39;101423.44;;;5.83;100.00
13695;BME280;6919;52.344;14.518;2023-02-16T09:47:18;101425.38;;;6.06;100.00
13695;BME280;6919;52.344;14.518;2023-02-16T09:49:48;101424.34;;;6.22;100.00
13695;BME280;6919;52.344;14.518;2023-02-16T09:52:22;101422.94;;;6.41;100.00
13695;BME280;6919;52.344;14.518;2023-02-16T09:54:56;101422.47;;;6.60;100.00
13695;BME280;6919;52.344;14.518;2023-02-16T09:57:37;101424.78;;;6.77;100.00
13695;BME280;6919;52.344;14.518;2023-02-16T10:00:16;101420.75;;;6.71;100.00
13695;BME280;6919;52.344;14.518;2023-02-16T10:02:54;101420.53;;;7.10;100.00
13695;BME280;6919;52.344;14.518;2023-02-16T10:05:31;101418.94;;;7.08;100.00
13695;BME280;6919;52.344;14.518;2023-02-16T10:08:05;101408.75;;;7.25;100.00
13695;BME280;6919;52.344;14.518;2023-02-16T10:10:43;101416.94;;;7.11;100.00
13695;BME280;6919;52.344;14.518;2023-02-16T10:13:21;101412.19;;;7.38;100.00
13695;BME280;6919;52.344;14.518;2023-02-16T10:15:53;101418.56;;;7.48;100.00
13695;BME280;6919;52.344;14.518;2023-02-16T10:18:29;101409.19;;;7.43;100.00
13695;BME280;6919;52.344;14.518;2023-02-16T10:21:02;101412.28;;;7.60;100.00
13695;BME280;6919;52.344;14.518;2023-02-16T10:23:44;101407.50;;;7.42;100.00
13695;BME280;6919;52.344;14.518;2023-02-16T10:26:18;101403.53;;;7.82;100.00
13695;BME280;6919;52.344;14.518;2023-02-16T10:28:51;101410.44;;;7.84;100.00
13695;BME280;6919;52.344;14.518;2023-02-16T10:31:25;101411.84;;;7.66;100.00
13695;BME280;6919;52.344;14.518;2023-02-16T10:34:18;101415.06;;;7.82;100.00
13695;BME280;6919;52.344;14.518;2023-02-16T10:37:13;101411.81;;;8.01;100.00
13695;BME280;6919;52.344;14.518;2023-02-16T10:39:49;101415.97;;;8.05;100.00
13695;BME280;6919;52.344;14.518;2023-02-16T10:42:26;101422.38;;;8.02;100.00
13695;BME280;6919;52.344;14.518;2023-02-16T10:45:03;101419.06;;;8.33;100.00
13695;BME280;6919;52.344;14.518;2023-02-16T10:47:37;101411.66;;;8.26;100.00
13695;BME280;6919;52.344;14.518;2023-02-16T10:50:18;101400.88;;;8.38;100.00
13695;BME280;6919;52.344;14.518;2023-02-16T10:52:50;101394.41;;;8.63;100.00
13695;BME280;6919;52.344;14.518;2023-02-16T10:55:19;101397.81;;;8.76;100.00
13695;BME280;6919;52.344;14.518;2023-02-16T10:57:54;101392.59;;;8.74;100.00
13695;BME280;6919;52.344;14.518;2023-02-16T11:00:46;101388.44;;;8.81;100.00
13695;BME280;6919;52.344;14.518;2023-02-16T11:03:21;101384.53;;;8.96;100.00
13695;BME280;6919;52.344;14.518;2023-02-16T11:05:52;101392.44;;;8.87;100.00
13695;BME280;6919;52.344;14.518;2023-02-16T11:08:21;101395.44;;;9.04;100.00
13695;BME280;6919;52.344;14.518;2023-02-16T11:10:52;101385.53;;;9.27;100.00
13695;BME280;6919;52.344;14.518;2023-02-16T11:13:30;101382.94;;;9.37;100.00
13695;BME280;6919;52.344;14.518;2023-02-16T11:16:02;101380.00;;;9.40;100.00
13695;BME280;6919;52.344;14.518;2023-02-16T11:18:35;101375.25;;;9.43;100.00
13695;BME280;6919;52.344;14.518;2023-02-16T11:21:08;101375.69;;;9.28;100.00
13695;BME280;6919;52.344;14.518;2023-02-16T11:23:38;101371.56;;;9.24;100.00
13695;BME280;6919;52.344;14.518;2023-02-16T11:26:21;101372.63;;;9.32;100.00
13695;BME280;6919;52.344;14.518;2023-02-16T11:28:52;101374.91;;;9.37;100.00
13695;BME280;6919;52.344;14.518;2023-02-16T11:31:26;101368.00;;;9.55;100.00
13695;BME280;6919;52.344;14.518;2023-02-16T11:33:58;101374.16;;;9.66;100.00
13695;BME280;6919;52.344;14.518;2023-02-16T11:36:34;101370.72;;;9.75;100.00
13695;BME280;6919;52.344;14.518;2023-02-16T11:39:13;101366.00;;;9.88;100.00
13695;BME280;6919;52.344;14.518;2023-02-16T11:41:43;101363.19;;;9.69;100.00
13695;BME280;6919;52.344;14.518;2023-02-16T11:44:23;101374.50;;;9.93;100.00
13695;BME280;6919;52.344;14.518;2023-02-16T11:46:54;101374.25;;;9.96;100.00
13695;BME280;6919;52.344;14.518;2023-02-16T11:49:30;101373.81;;;10.12;100.00
13695;BME280;6919;52.344;14.518;2023-02-16T11:52:18;101368.50;;;10.21;100.00
13695;BME280;6919;52.344;14.518;2023-02-16T11:54:49;101363.94;;;10.42;100.00
13695;BME280;6919;52.344;14.518;2023-02-16T11:57:23;101365.25;;;10.27;100.00
13695;BME280;6919;52.344;14.518;2023-02-16T11:59:53;101365.69;;;10.23;100.00
13695;BME280;6919;52.344;14.518;2023-02-16T12:03:03;101362.44;;;10.29;100.00
13695;BME280;6919;52.344;14.518;2023-02-16T12:05:41;101362.44;;;10.29;100.00
13695;BME280;6919;52.344;14.518;2023-02-16T12:08:36;101353.44;;;10.30;100.00
13695;BME280;6919;52.344;14.518;2023-02-16T12:11:17;101357.22;;;10.27;100.00
13695;BME280;6919;52.344;14.518;2023-02-16T12:13:59;101358.56;;;10.12;100.00
13695;BME280;6919;52.344;14.518;2023-02-16T12:16:35;101353.00;;;10.34;100.00
13695;BME280;6919;52.344;14.518;2023-02-16T12:19:17;101355.66;;;10.25;100.00
13695;BME280;6919;52.344;14.518;2023-02-16T12:21:51;101347.72;;;10.44;100.00
13695;BME280;6919;52.344;14.518;2023-02-16T12:24:32;101345.25;;;10.71;100.00
13695;BME280;6919;52.344;14.518;2023-02-16T12:27:10;101335.13;;;10.84;100.00
13695;BME280;6919;52.344;14.518;2023-02-16T12:29:48;101328.63;;;10.86;100.00
13695;BME280;6919;52.344;14.518;2023-02-16T12:32:30;101329.00;;;10.63;100.00
13695;BME280;6919;52.344;14.518;2023-02-16T12:35:28;101318.28;;;10.72;100.00
13695;BME280;6919;52.344;14.518;2023-02-16T12:38:05;101315.88;;;10.69;100.00
13695;BME280;6919;52.344;14.518;2023-02-16T12:40:48;101318.16;;;10.74;100.00
13695;BME280;6919;52.344;14.518;2023-02-16T12:43:32;101307.19;;;10.96;100.00
13695;BME280;6919;52.344;14.518;2023-02-16T12:46:05;101306.50;;;10.94;100.00
13695;BME280;6919;52.344;14.518;2023-02-16T12:48:42;101304.94;;;11.01;100.00
13695;BME280;6919;52.344;14.518;2023-02-16T12:51:17;101297.84;;;10.90;100.00
13695;BME280;6919;52.344;14.518;2023-02-16T12:53:55;101287.44;;;11.06;100.00
13695;BME280;6919;52.344;14.518;2023-02-16T12:56:32;101288.25;;;10.88;100.00
13695;BME280;6919;52.344;14.518;2023-02-16T12:59:12;101287.13;;;10.90;100.00
13695;BME280;6919;52.344;14.518;2023-02-16T13:01:43;101284.84;;;10.86;100.00
13695;BME280;6919;52.344;14.518;2023-02-16T13:04:20;101288.53;;;10.94;100.00
13695;BME280;6919;52.344;14.518;2023-02-16T13:06:56;101281.78;;;11.09;100.00
13695;BME280;6919;52.344;14.518;2023-02-16T13:09:35;101283.88;;;11.53;100.00
13695;BME280;6919;52.344;14.518;2023-02-16T13:12:09;101283.75;;;11.45;100.00
13695;BME280;6919;52.344;14.518;2023-02-16T13:14:42;101273.81;;;11.46;100.00
13695;BME280;6919;52.344;14.518;2023-02-16T13:17:16;101278.09;;;11.20;100.00
13695;BME280;6919;52.344;14.518;2023-02-16T13:19:47;101281.47;;;11.41;100.00
13695;BME280;6919;52.344;14.518;2023-02-16T13:22:29;101279.09;;;11.09;100.00
13695;BME280;6919;52.344;14.518;2023-02-16T13:25:20;101281.38;;;11.23;100.00